Time;durP1;ratioP1;P1;durP2;ratioP2;P2;SDS_P1;SDS_P2;PMS_P1;PMS_P2;Temp;Humidity;BMP_temperature;BMP_pressure;BME280_temperature;BME280_humidity;BME280_pressure;Samples;Min_cycle;Max_cycle;Signal;HPM_P1;HPM_P2
2021/12/29 00:00:00;;;;;;;;;7.33;5.67;;;;;14.27;57.36;100198.47;2062817;28;47203;-56
2021/12/29 00:01:01;;;;;;;;;5.50;4.50;;;;;14.26;57.42;100205.63;2059906;27;48062;-56
2021/12/29 00:02:01;;;;;;;;;5.33;4.00;;;;;14.26;56.99;100204.75;2059278;28;47766;-57
2021/12/29 00:03:03;;;;;;;;;7.67;5.33;;;;;14.26;57.14;100204.75;2055852;28;46845;-56
2021/12/29 00:04:03;;;;;;;;;6.50;4.75;;;;;14.25;57.29;100209.22;2068807;28;47437;-55
2021/12/29 00:05:05;;;;;;;;;5.33;3.00;;;;;14.26;57.36;100212.75;2070436;28;45286;-56
2021/12/29 00:06:05;;;;;;;;;5.50;5.50;;;;;14.25;57.49;100219.91;2096851;27;47184;-54
2021/12/29 00:07:06;;;;;;;;;5.00;5.00;;;;;14.27;57.51;100222.50;2053567;28;45898;-57
2021/12/29 00:08:07;;;;;;;;;3.67;2.00;;;;;14.27;57.18;100219.81;2063520;27;45575;-56
2021/12/29 00:09:07;;;;;;;;;5.00;4.00;;;;;14.27;57.37;100215.34;2060039;27;47228;-56
2021/12/29 00:10:08;;;;;;;;;3.00;3.00;;;;;14.28;57.51;100216.22;2052146;28;47564;-54
2021/12/29 00:11:09;;;;;;;;;5.00;5.00;;;;;14.28;57.00;100227.75;2047190;28;47595;-57
2021/12/29 00:12:10;;;;;;;;;6.00;6.00;;;;;14.28;57.22;100222.44;2055164;28;47287;-56
2021/12/29 00:13:11;;;;;;;;;6.50;5.75;;;;;14.28;57.43;100219.75;2065421;28;47337;-56
2021/12/29 00:14:11;;;;;;;;;8.33;6.67;;;;;14.29;57.37;100228.63;2063898;27;48073;-57
2021/12/29 00:15:14;;;;;;;;;5.00;4.33;;;;;14.28;57.29;100234.91;2082034;27;47814;-56
2021/12/29 00:16:14;;;;;;;;;4.00;4.00;;;;;14.28;57.32;100233.09;2092697;28;47548;-57
2021/12/29 00:17:14;;;;;;;;;7.00;4.00;;;;;14.28;57.16;100238.44;2055416;28;47455;-57
2021/12/29 00:18:15;;;;;;;;;7.00;6.00;;;;;14.29;57.17;100234.84;2072008;28;48092;-55
2021/12/29 00:19:15;;;;;;;;;6.00;4.00;;;;;14.29;57.45;100241.97;2061955;27;47380;-58
2021/12/29 00:20:19;;;;;;;;;7.33;4.67;;;;;14.30;57.40;100249.03;2074229;27;46933;-58
2021/12/29 00:21:20;;;;;;;;;7.50;6.00;;;;;14.30;57.08;100255.25;2060731;28;48305;-57
2021/12/29 00:22:20;;;;;;;;;7.00;6.00;;;;;14.30;57.03;100246.38;2054359;28;47390;-55
2021/12/29 00:23:21;;;;;;;;;8.00;7.00;;;;;14.29;57.19;100247.31;2085806;28;48276;-57
2021/12/29 00:24:21;;;;;;;;;4.00;4.00;;;;;14.27;56.92;100247.38;2062121;27;47172;-56
2021/12/29 00:25:22;;;;;;;;;4.00;3.33;;;;;14.26;57.53;100248.31;2077767;27;48458;-57
2021/12/29 00:26:22;;;;;;;;;7.33;5.67;;;;;14.27;57.36;100254.53;2070587;28;45846;-55
2021/12/29 00:27:23;;;;;;;;;5.67;4.00;;;;;14.27;57.45;100270.53;2054424;28;48043;-55
2021/12/29 00:28:23;;;;;;;;;6.33;4.67;;;;;14.25;57.24;100265.28;2094915;28;47628;-56
2021/12/29 00:29:24;;;;;;;;;7.00;5.00;;;;;14.25;57.03;100273.28;2070142;28;47805;-58
2021/12/29 00:30:25;;;;;;;;;5.00;5.00;;;;;14.25;57.41;100272.41;2084618;28;46844;-56
2021/12/29 00:31:30;;;;;;;;;9.75;5.75;;;;;14.26;57.29;100285.69;2079522;28;47425;-57
2021/12/29 00:32:30;;;;;;;;;5.75;4.00;;;;;14.27;57.50;100281.22;2057824;28;48411;-56
2021/12/29 00:33:31;;;;;;;;;5.00;5.00;;;;;14.27;57.23;100283.88;2054316;28;47459;-56
2021/12/29 00:34:31;;;;;;;;;3.00;3.00;;;;;14.27;57.40;100292.75;2081886;28;47083;-58
2021/12/29 00:35:34;;;;;;;;;5.00;4.67;;;;;14.27;57.31;100292.75;2093566;27;47946;-57
2021/12/29 00:36:34;;;;;;;;;7.25;5.50;;;;;14.26;57.20;100291.03;2080938;27;48359;-56
2021/12/29 00:37:35;;;;;;;;;4.00;3.67;;;;;14.26;57.53;100299.03;2064613;28;48017;-56
2021/12/29 00:38:36;;;;;;;;;7.67;5.67;;;;;14.26;57.20;100292.84;2054864;28;47892;-57
2021/12/29 00:39:36;;;;;;;;;9.00;5.75;;;;;14.26;57.17;100291.03;2092642;28;47450;-54
2021/12/29 00:40:38;;;;;;;;;6.67;6.67;;;;;14.25;57.33;100296.44;2093535;27;48143;-57
2021/12/29 00:41:39;;;;;;;;;6.25;6.00;;;;;14.25;57.25;100299.09;2081895;27;46919;-54
2021/12/29 00:42:40;;;;;;;;;6.00;5.33;;;;;14.25;57.64;100297.31;2072401;27;47548;-56
2021/12/29 00:43:41;;;;;;;;;6.00;6.00;;;;;14.25;57.11;100291.09;2060528;27;47920;-55
2021/12/29 00:44:41;;;;;;;;;6.33;6.33;;;;;14.24;57.62;100292.03;2097476;27;47398;-56
2021/12/29 00:45:43;;;;;;;;;8.33;7.33;;;;;14.24;57.33;100297.38;2092728;27;48134;-58
2021/12/29 00:46:44;;;;;;;;;5.00;4.25;;;;;14.24;57.35;100308.03;2077003;28;46245;-56
2021/12/29 00:47:44;;;;;;;;;9.00;8.33;;;;;14.24;57.70;100302.72;2055414;28;46634;-55
2021/12/29 00:48:47;;;;;;;;;6.33;4.67;;;;;14.23;57.67;100308.94;2065334;28;47274;-58
2021/12/29 00:49:48;;;;;;;;;4.00;4.00;;;;;14.23;57.65;100307.19;2097326;27;47438;-57
2021/12/29 00:50:48;;;;;;;;;6.67;5.00;;;;;14.23;57.57;100307.19;2091789;27;47292;-55
2021/12/29 00:51:49;;;;;;;;;6.33;5.33;;;;;14.23;57.57;100299.19;2081327;27;48154;-57
2021/12/29 00:52:49;;;;;;;;;6.00;5.00;;;;;14.24;57.82;100305.38;2054765;27;46716;-56
2021/12/29 00:53:50;;;;;;;;;7.67;4.67;;;;;14.25;57.87;100307.09;2062061;28;47804;-57
2021/12/29 00:54:50;;;;;;;;;7.33;5.33;;;;;14.24;57.78;100300.91;2055910;28;46941;-57
2021/12/29 00:55:50;;;;;;;;;4.67;3.67;;;;;14.25;57.78;100297.31;2095695;28;47043;-58
2021/12/29 00:56:51;;;;;;;;;6.00;5.00;;;;;14.26;57.89;100306.19;2075718;27;47122;-57
2021/12/29 00:57:52;;;;;;;;;11.33;4.67;;;;;14.25;57.97;100310.66;2054855;28;46975;-58
2021/12/29 00:58:53;;;;;;;;;4.50;4.25;;;;;14.25;57.83;100313.31;2069692;28;48536;-56
2021/12/29 00:59:53;;;;;;;;;4.00;4.00;;;;;14.25;57.80;100313.31;2063322;27;48056;-56
2021/12/29 01:00:54;;;;;;;;;6.33;6.33;;;;;14.25;57.86;100307.09;2097819;27;46243;-58
2021/12/29 01:01:55;;;;;;;;;7.00;5.00;;;;;14.25;57.79;100310.66;2065405;28;47201;-57
2021/12/29 01:02:55;;;;;;;;;7.75;7.75;;;;;14.26;57.97;100308.84;2055086;28;47202;-56
2021/12/29 01:03:56;;;;;;;;;5.00;4.67;;;;;14.26;58.07;100315.03;2074999;28;47052;-55
2021/12/29 01:04:57;;;;;;;;;5.50;5.00;;;;;14.25;58.31;100305.31;2072277;28;48030;-57
2021/12/29 01:05:57;;;;;;;;;8.00;5.00;;;;;14.26;58.28;100303.50;2097383;27;48201;-57
2021/12/29 01:06:58;;;;;;;;;8.00;5.33;;;;;14.27;57.93;100299.91;2062556;27;48351;-56
2021/12/29 01:07:58;;;;;;;;;7.67;6.67;;;;;14.26;58.12;100304.38;2062993;28;47741;-57
2021/12/29 01:08:59;;;;;;;;;11.67;6.00;;;;;14.27;58.31;100300.75;2073391;27;47166;-57
2021/12/29 01:10:00;;;;;;;;;10.00;8.00;;;;;14.28;58.04;100298.97;2086944;28;45358;-57
2021/12/29 01:11:01;;;;;;;;;8.50;5.25;;;;;14.28;58.11;100306.97;2097397;27;48034;-55
2021/12/29 01:12:02;;;;;;;;;8.50;6.25;;;;;14.30;57.94;100308.63;2053564;28;45391;-58
2021/12/29 01:13:03;;;;;;;;;5.50;5.50;;;;;14.31;57.89;100301.50;2042380;28;45447;-55
2021/12/29 01:14:07;;;;;;;;;6.50;5.50;;;;;14.30;58.02;100300.63;2069672;28;47337;-57
2021/12/29 01:15:14;;;;;;;;;7.50;5.00;;;;;14.30;57.90;100305.09;2077561;27;47571;-56
2021/12/29 01:17:35;;;;;;;;;3.00;3.00;;;;;14.28;58.00;100314.97;2052521;28;47467;-56
2021/12/29 01:18:38;;;;;;;;;5.00;4.67;;;;;14.28;58.57;100323.00;2080293;28;48290;-56
2021/12/29 01:19:39;;;;;;;;;12.25;7.25;;;;;14.28;58.28;100317.66;2062599;28;46994;-57
2021/12/29 01:20:39;;;;;;;;;5.67;5.33;;;;;14.27;58.01;100310.56;2097431;27;46243;-56
2021/12/29 01:21:44;;;;;;;;;7.00;6.67;;;;;14.26;58.41;100308.84;2073707;27;48305;-57
2021/12/29 01:22:44;;;;;;;;;6.75;4.25;;;;;14.26;57.91;100311.50;2056405;28;47344;-56
2021/12/29 01:23:45;;;;;;;;;6.67;6.67;;;;;14.26;58.46;100314.19;2083723;27;47419;-56
2021/12/29 01:24:46;;;;;;;;;9.00;6.00;;;;;14.26;58.54;100316.84;2073296;28;47133;-58
2021/12/29 01:25:46;;;;;;;;;4.00;3.67;;;;;14.25;58.32;100324.00;2056843;27;48067;-58
2021/12/29 01:26:48;;;;;;;;;6.00;4.00;;;;;14.25;58.58;100320.47;2067569;28;47352;-56
2021/12/29 01:27:48;;;;;;;;;6.00;5.25;;;;;14.25;58.51;100329.31;2064940;28;47316;-55
2021/12/29 01:28:49;;;;;;;;;9.67;7.33;;;;;14.26;58.62;100330.19;2081268;27;45537;-54
2021/12/29 01:29:49;;;;;;;;;6.67;5.67;;;;;14.25;58.39;100320.47;2082549;27;46218;-56
2021/12/29 01:30:50;;;;;;;;;6.00;5.67;;;;;14.26;58.62;100324.84;2090872;27;46498;-55
2021/12/29 01:31:50;;;;;;;;;10.33;5.67;;;;;14.26;58.31;100328.41;2073528;28;47187;-55
2021/12/29 01:32:51;;;;;;;;;7.67;4.67;;;;;14.25;58.49;100324.00;2069348;28;47161;-56
2021/12/29 01:33:51;;;;;;;;;5.67;5.00;;;;;14.25;58.72;100324.00;2079432;27;47281;-57
2021/12/29 01:34:52;;;;;;;;;7.67;6.00;;;;;14.26;58.42;100315.03;2090555;28;47052;-56
2021/12/29 01:35:52;;;;;;;;;8.67;6.00;;;;;14.26;58.57;100323.06;2089506;27;47298;-57
2021/12/29 01:36:53;;;;;;;;;6.33;5.67;;;;;14.26;58.57;100309.72;2072771;28;45368;-56
2021/12/29 01:37:54;;;;;;;;;7.25;4.75;;;;;14.27;58.39;100319.44;2059246;28;47280;-57
2021/12/29 01:38:54;;;;;;;;;8.33;8.33;;;;;14.27;58.44;100310.56;2056131;28;47234;-55
2021/12/29 01:39:55;;;;;;;;;8.67;5.00;;;;;14.27;58.67;100310.56;2096991;27;46965;-58
2021/12/29 01:40:55;;;;;;;;;6.00;6.00;;;;;14.27;58.87;100319.44;2089708;27;47102;-57
2021/12/29 01:41:57;;;;;;;;;6.33;6.33;;;;;14.27;58.60;100315.91;2070440;27;45380;-58
2021/12/29 01:42:59;;;;;;;;;8.50;6.50;;;;;14.27;58.52;100324.78;2064370;28;47045;-56
2021/12/29 01:44:00;;;;;;;;;5.75;5.25;;;;;14.27;58.78;100315.91;2065178;27;48362;-58
2021/12/29 01:45:02;;;;;;;;;7.50;5.00;;;;;14.28;58.70;100312.31;2097090;27;46835;-56
2021/12/29 01:46:03;;;;;;;;;9.75;5.75;;;;;14.26;58.55;100307.03;2067211;28;47978;-57
2021/12/29 01:47:03;;;;;;;;;10.67;6.00;;;;;14.25;58.68;100313.31;2049059;28;46044;-57
2021/12/29 01:48:05;;;;;;;;;7.00;6.00;;;;;14.25;58.67;100313.31;2067067;28;47898;-57
2021/12/29 01:49:06;;;;;;;;;9.75;9.00;;;;;14.25;58.99;100315.97;2076605;28;47970;-57
2021/12/29 01:50:08;;;;;;;;;8.25;8.00;;;;;14.26;58.67;100316.84;2093950;27;48220;-56
2021/12/29 01:51:09;;;;;;;;;9.00;7.00;;;;;14.25;58.77;100323.13;2095724;28;46946;-58
2021/12/29 01:52:12;;;;;;;;;7.33;6.00;;;;;14.25;58.93;100325.78;2064002;27;46218;-57
2021/12/29 01:53:22;;;;;;;;;8.75;7.50;;;;;14.24;59.15;100316.91;2054296;28;47175;-57
2021/12/29 01:54:25;;;;;;;;;11.00;9.00;;;;;14.24;58.83;100316.91;2055828;28;47257;-56
2021/12/29 01:55:27;;;;;;;;;7.75;6.25;;;;;14.24;59.02;100318.72;2072550;28;47966;-56
2021/12/29 01:56:29;;;;;;;;;7.50;6.00;;;;;14.23;59.17;100320.53;2090352;27;47368;-55
2021/12/29 01:57:29;;;;;;;;;8.00;6.75;;;;;14.24;59.15;100321.41;2063773;28;47225;-54
2021/12/29 01:58:30;;;;;;;;;4.67;4.67;;;;;14.24;59.08;100322.25;2071584;27;46846;-56
2021/12/29 01:59:30;;;;;;;;;10.33;7.33;;;;;14.23;58.59;100320.53;2062105;28;48168;-59
2021/12/29 02:00:34;;;;;;;;;9.00;7.00;;;;;14.23;59.10;100328.53;2081942;27;46630;-56
2021/12/29 02:01:35;;;;;;;;;6.50;6.00;;;;;14.24;58.92;100326.72;2089924;27;47494;-58
2021/12/29 02:02:38;;;;;;;;;6.00;4.33;;;;;14.23;58.86;100328.53;2052379;28;47077;-57
2021/12/29 02:03:39;;;;;;;;;6.25;5.25;;;;;14.25;58.92;100328.47;2071398;28;47237;-57
2021/12/29 02:04:39;;;;;;;;;7.00;3.67;;;;;14.24;59.21;100330.25;2055472;28;48000;-58
2021/12/29 02:05:41;;;;;;;;;6.00;5.33;;;;;14.24;58.91;100335.59;2076239;28;47642;-57
2021/12/29 02:06:42;;;;;;;;;6.75;5.00;;;;;14.24;58.99;100338.28;2053049;28;48208;-57
2021/12/29 02:07:43;;;;;;;;;8.00;7.00;;;;;14.25;59.16;100336.47;2054406;28;47426;-58
2021/12/29 02:08:43;;;;;;;;;9.00;6.67;;;;;14.25;58.88;100340.00;2066551;28;48263;-58
2021/12/29 02:09:44;;;;;;;;;7.33;5.67;;;;;14.25;59.13;100345.34;2084442;28;47081;-57
2021/12/29 02:10:46;;;;;;;;;7.67;5.00;;;;;14.26;59.26;100343.53;2097001;27;48329;-58
2021/12/29 02:11:47;;;;;;;;;9.25;6.00;;;;;14.26;58.96;100343.53;2072676;27;47364;-56
2021/12/29 02:12:48;;;;;;;;;8.00;6.00;;;;;14.25;59.04;100340.00;2054598;28;47405;-57
2021/12/29 02:13:48;;;;;;;;;8.50;6.75;;;;;14.25;58.93;100344.47;2073657;28;47087;-56
2021/12/29 02:14:49;;;;;;;;;7.00;6.67;;;;;14.26;59.15;100333.72;2064263;28;46285;-56
2021/12/29 02:15:49;;;;;;;;;7.33;6.00;;;;;14.26;59.12;100327.53;2096828;27;46874;-57
2021/12/29 02:16:50;;;;;;;;;9.33;8.33;;;;;14.28;59.38;100336.34;2069855;27;47933;-58
2021/12/29 02:17:50;;;;;;;;;7.00;5.00;;;;;14.27;59.02;100337.25;2056334;28;47187;-56
2021/12/29 02:18:56;;;;;;;;;5.00;5.00;;;;;14.28;59.19;100339.00;2080143;28;47483;-58
2021/12/29 02:20:02;;;;;;;;;10.00;7.25;;;;;14.27;59.38;100335.47;2077011;28;47310;-58
2021/12/29 02:21:02;;;;;;;;;4.00;4.00;;;;;14.30;59.20;100342.47;2073290;28;47783;-57
2021/12/29 02:22:19;;;;;;;;;11.67;6.00;;;;;14.29;59.52;100336.25;2056691;28;46954;-57
2021/12/29 02:23:34;;;;;;;;;7.50;6.50;;;;;14.31;59.00;100338.84;2083981;28;47313;-58
2021/12/29 02:24:39;;;;;;;;;4.00;3.50;;;;;14.29;59.35;100333.59;2067440;27;49306;-55
2021/12/29 02:25:58;;;;;;;;;4.25;4.25;;;;;14.30;58.97;100340.66;2062434;27;47254;-55
2021/12/29 02:26:59;;;;;;;;;7.00;6.50;;;;;14.30;59.33;100332.66;2049473;28;48012;-57
2021/12/29 02:28:01;;;;;;;;;6.00;4.00;;;;;14.30;59.16;100338.00;2072583;28;47948;-56
2021/12/29 02:29:05;;;;;;;;;6.75;5.75;;;;;14.30;59.13;100335.31;2073006;28;48553;-56
2021/12/29 02:30:06;;;;;;;;;8.25;7.00;;;;;14.29;59.12;100336.25;2079427;28;47175;-56
2021/12/29 02:31:07;;;;;;;;;5.00;5.00;;;;;14.29;59.18;100333.59;2071067;28;48647;-56
2021/12/29 02:32:08;;;;;;;;;10.25;4.50;;;;;14.31;59.25;100328.19;2061663;28;46938;-56
2021/12/29 02:33:13;;;;;;;;;6.67;6.67;;;;;14.32;59.39;100337.91;2056498;28;47207;-55
2021/12/29 02:34:16;;;;;;;;;5.00;4.75;;;;;14.32;59.23;100341.47;2063924;28;48438;-57
2021/12/29 02:35:17;;;;;;;;;7.75;6.50;;;;;14.33;59.39;100334.31;2096906;27;47192;-56
2021/12/29 02:36:19;;;;;;;;;6.50;6.50;;;;;14.33;59.21;100337.84;2084667;28;45431;-57
2021/12/29 02:37:20;;;;;;;;;7.25;5.25;;;;;14.33;59.13;100334.31;2060770;28;47895;-56
2021/12/29 02:38:27;;;;;;;;;8.50;6.00;;;;;14.33;59.14;100337.00;2055113;27;46870;-57
2021/12/29 02:39:33;;;;;;;;;8.00;6.75;;;;;14.34;59.68;100338.72;2083042;28;48231;-57
2021/12/29 02:40:34;;;;;;;;;8.50;7.75;;;;;14.34;59.49;100339.59;2091429;27;46227;-57
2021/12/29 02:41:34;;;;;;;;;5.00;5.00;;;;;14.33;59.21;100337.84;2066059;27;47366;-56
2021/12/29 02:42:40;;;;;;;;;7.00;5.00;;;;;14.34;59.37;100338.72;2070412;28;47504;-55
2021/12/29 02:43:41;;;;;;;;;5.25;5.25;;;;;14.35;59.25;100335.13;2057290;28;48061;-57
2021/12/29 02:44:42;;;;;;;;;7.25;6.00;;;;;14.34;59.24;100331.56;2065053;27;47353;-55
2021/12/29 02:45:48;;;;;;;;;5.00;5.00;;;;;14.34;59.34;100338.72;2053642;28;48028;-56
2021/12/29 02:46:49;;;;;;;;;5.25;4.75;;;;;14.33;59.31;100334.31;2053973;28;47424;-56
2021/12/29 02:47:49;;;;;;;;;10.33;9.00;;;;;14.33;59.57;100335.19;2055520;27;47429;-56
2021/12/29 02:48:56;;;;;;;;;6.00;5.00;;;;;14.34;59.59;100336.06;2056697;28;45701;-59
2021/12/29 02:49:57;;;;;;;;;7.50;6.75;;;;;14.34;59.62;100331.56;2054698;28;47318;-56
2021/12/29 02:50:59;;;;;;;;;6.00;4.00;;;;;14.32;59.71;100322.78;2093973;28;48363;-56
2021/12/29 02:52:00;;;;;;;;;9.00;6.00;;;;;14.33;59.54;100328.97;2077053;27;47209;-57
2021/12/29 02:53:00;;;;;;;;;5.67;4.33;;;;;14.32;59.47;100325.44;2053988;28;48359;-57
2021/12/29 02:54:02;;;;;;;;;6.67;5.67;;;;;14.33;59.50;100327.19;2062912;27;46961;-56
2021/12/29 02:55:03;;;;;;;;;6.00;5.00;;;;;14.32;59.31;100320.09;2061976;28;47435;-56
2021/12/29 02:56:05;;;;;;;;;4.25;4.25;;;;;14.33;59.76;100332.50;2096129;28;46363;-56
2021/12/29 02:57:06;;;;;;;;;7.25;6.25;;;;;14.33;59.65;100329.84;2067418;28;47251;-56
2021/12/29 02:58:07;;;;;;;;;5.25;3.00;;;;;14.34;59.78;100328.91;2052843;28;46447;-56
2021/12/29 02:59:07;;;;;;;;;7.67;4.33;;;;;14.34;59.41;100334.25;2068492;28;48082;-57
2021/12/29 03:00:12;;;;;;;;;4.67;4.00;;;;;14.37;59.37;100333.28;2071896;27;47119;-56
2021/12/29 03:01:15;;;;;;;;;6.00;4.50;;;;;14.36;59.54;100336.88;2096788;27;48096;-56
2021/12/29 03:02:15;;;;;;;;;5.00;5.00;;;;;14.36;59.74;100331.53;2055480;28;47925;-57
2021/12/29 03:03:20;;;;;;;;;9.33;5.33;;;;;14.36;59.78;100332.41;2068118;28;47059;-56
2021/12/29 03:04:21;;;;;;;;;4.50;4.00;;;;;14.38;59.77;100335.00;2058754;27;48321;-56
2021/12/29 03:05:24;;;;;;;;;5.67;5.00;;;;;14.37;59.34;100334.13;2055601;28;47334;-57
2021/12/29 03:06:25;;;;;;;;;6.75;5.50;;;;;14.39;59.66;100334.06;2054458;28;48148;-57
2021/12/29 03:07:25;;;;;;;;;9.00;4.75;;;;;14.40;59.57;100341.13;2053992;28;45407;-57
2021/12/29 03:08:26;;;;;;;;;5.00;4.00;;;;;14.40;59.82;100327.78;2059834;28;47192;-58
2021/12/29 03:09:26;;;;;;;;;5.00;4.00;;;;;14.39;59.78;100329.59;2087662;28;47284;-59
2021/12/29 03:10:27;;;;;;;;;5.00;3.00;;;;;14.40;59.73;100325.13;2089357;27;48094;-56
2021/12/29 03:11:27;;;;;;;;;5.00;5.00;;;;;14.40;59.78;100323.31;2086685;27;48133;-57
2021/12/29 03:12:28;;;;;;;;;5.00;5.00;;;;;14.41;59.45;100325.06;2053877;28;47329;-56
2021/12/29 03:13:31;;;;;;;;;5.00;4.00;;;;;14.41;59.55;100332.19;2076885;28;47968;-56
2021/12/29 03:14:31;;;;;;;;;9.75;5.75;;;;;14.41;59.65;100329.53;2054710;28;48346;-56
2021/12/29 03:15:32;;;;;;;;;7.67;6.33;;;;;14.40;59.41;100327.78;2095062;28;47093;-56
2021/12/29 03:16:33;;;;;;;;;5.00;5.00;;;;;14.41;59.57;100334.88;2082045;27;48520;-56
2021/12/29 03:17:34;;;;;;;;;5.75;5.00;;;;;14.41;59.43;100332.19;2054089;28;47713;-57
2021/12/29 03:18:34;;;;;;;;;7.00;5.00;;;;;14.41;59.32;100326.84;2082433;28;46179;-54
2021/12/29 03:19:35;;;;;;;;;6.67;5.00;;;;;14.41;59.75;100333.06;2059651;28;47410;-56
2021/12/29 03:20:35;;;;;;;;;5.00;5.00;;;;;14.40;59.77;100323.31;2096548;27;48041;-56
2021/12/29 03:21:37;;;;;;;;;6.00;6.00;;;;;14.40;59.35;100326.00;2079714;27;46952;-57
2021/12/29 03:22:37;;;;;;;;;5.00;4.25;;;;;14.40;59.94;100331.31;2052443;28;48398;-56
2021/12/29 03:23:38;;;;;;;;;4.00;4.00;;;;;14.40;59.62;100333.13;2087683;28;47250;-57
2021/12/29 03:24:39;;;;;;;;;4.67;3.00;;;;;14.40;59.73;100322.44;2071718;27;48068;-56
2021/12/29 03:25:40;;;;;;;;;7.67;4.67;;;;;14.41;59.82;100326.84;2056916;27;48481;-57
2021/12/29 03:26:40;;;;;;;;;6.00;3.67;;;;;14.40;59.73;100323.31;2073601;28;47212;-57
2021/12/29 03:27:41;;;;;;;;;5.67;5.67;;;;;14.41;59.41;100326.84;2062258;28;46980;-56
2021/12/29 03:28:43;;;;;;;;;4.33;2.67;;;;;14.42;59.87;100321.44;2088838;28;47752;-56
2021/12/29 03:29:43;;;;;;;;;7.25;4.25;;;;;14.42;59.95;100321.44;2080532;28;47887;-57
2021/12/29 03:30:48;;;;;;;;;8.67;5.00;;;;;14.43;59.67;100325.84;2095162;27;46902;-57
2021/12/29 03:31:49;;;;;;;;;4.75;4.75;;;;;14.44;59.64;100324.06;2076561;28;48295;-56
2021/12/29 03:32:52;;;;;;;;;5.25;3.00;;;;;14.43;59.38;100325.84;2056756;28;48299;-58
2021/12/29 03:33:53;;;;;;;;;7.00;2.25;;;;;14.45;59.77;100330.28;2051068;28;48299;-56
2021/12/29 03:34:54;;;;;;;;;5.33;3.33;;;;;14.42;59.75;100324.13;2094392;28;47314;-57
2021/12/29 03:36:01;;;;;;;;;4.00;3.00;;;;;14.45;59.83;100332.94;2093811;27;47575;-56
2021/12/29 03:37:02;;;;;;;;;4.75;4.75;;;;;14.43;59.90;100333.84;2067367;28;47843;-59
2021/12/29 03:38:06;;;;;;;;;6.25;5.75;;;;;14.45;59.86;100338.28;2063061;27;48227;-55
2021/12/29 03:39:07;;;;;;;;;6.00;4.00;;;;;14.45;59.98;100333.81;2074999;27;47279;-57
2021/12/29 03:40:08;;;;;;;;;5.00;5.00;;;;;14.45;59.86;100336.50;2097768;27;48172;-56
2021/12/29 03:41:12;;;;;;;;;6.75;6.00;;;;;14.46;60.27;100332.00;2093743;27;48220;-57
2021/12/29 03:42:12;;;;;;;;;6.25;4.50;;;;;14.46;60.19;100326.69;2065784;27;47213;-56
2021/12/29 03:43:13;;;;;;;;;4.00;3.67;;;;;14.46;60.01;100327.53;2063557;27;47170;-56
2021/12/29 03:44:14;;;;;;;;;5.75;5.00;;;;;14.46;60.25;100322.19;2080004;28;47735;-57
2021/12/29 03:45:14;;;;;;;;;2.33;2.33;;;;;14.48;59.93;100332.81;2094671;27;45608;-57
2021/12/29 03:46:16;;;;;;;;;6.67;4.67;;;;;14.48;60.19;100327.47;2095552;28;46823;-56
2021/12/29 03:47:16;;;;;;;;;3.50;3.50;;;;;14.47;59.99;100318.59;2074083;27;47117;-57
2021/12/29 03:48:18;;;;;;;;;4.00;3.00;;;;;14.48;60.05;100317.66;2060414;27;47183;-57
2021/12/29 03:49:18;;;;;;;;;4.50;3.25;;;;;14.46;60.35;100316.88;2070872;28;47482;-55
2021/12/29 03:50:19;;;;;;;;;6.00;4.67;;;;;14.47;60.36;100328.41;2063575;28;47071;-58
2021/12/29 03:51:20;;;;;;;;;4.33;3.67;;;;;14.47;60.12;100331.06;2098045;27;47094;-56
2021/12/29 03:52:20;;;;;;;;;5.00;5.00;;;;;14.46;60.29;100326.69;2049861;27;48305;-55
2021/12/29 03:53:21;;;;;;;;;5.00;4.00;;;;;14.46;60.14;100332.88;2055638;28;46951;-56
2021/12/29 03:54:21;;;;;;;;;4.00;3.33;;;;;14.46;60.46;100335.56;2059943;27;48112;-55
2021/12/29 03:55:22;;;;;;;;;4.33;4.00;;;;;14.48;60.40;100332.81;2073524;28;48033;-57
2021/12/29 03:56:22;;;;;;;;;6.33;5.00;;;;;14.47;60.59;100320.41;2096001;27;48142;-57
2021/12/29 03:57:23;;;;;;;;;5.00;5.00;;;;;14.48;60.69;100317.66;2056507;28;47118;-59
2021/12/29 03:58:26;;;;;;;;;6.00;5.00;;;;;14.49;60.41;100321.22;2064451;28;48407;-56
2021/12/29 03:59:28;;;;;;;;;3.50;3.25;;;;;14.49;60.25;100315.88;2056500;27;47505;-56
2021/12/29 04:00:28;;;;;;;;;4.00;4.00;;;;;14.48;60.44;100317.66;2084461;28;48245;-53
2021/12/29 04:01:29;;;;;;;;;4.33;3.67;;;;;14.47;60.28;100313.25;2088914;27;47178;-55
2021/12/29 04:02:29;;;;;;;;;10.00;6.00;;;;;14.46;60.25;100303.50;2054917;28;47429;-55
2021/12/29 04:03:30;;;;;;;;;6.33;6.33;;;;;14.48;60.72;100308.78;2075736;28;48478;-57
2021/12/29 04:04:31;;;;;;;;;4.00;2.25;;;;;14.47;60.29;100307.06;2054441;28;46375;-54
2021/12/29 04:05:32;;;;;;;;;4.67;4.67;;;;;14.48;60.36;100308.78;2092733;27;47440;-57
2021/12/29 04:06:33;;;;;;;;;4.25;4.25;;;;;14.48;60.35;100306.09;2083581;27;48263;-57
2021/12/29 04:07:33;;;;;;;;;8.33;6.00;;;;;14.48;60.70;100308.78;2052048;28;46135;-56
2021/12/29 04:08:34;;;;;;;;;4.00;3.67;;;;;14.47;60.31;100305.25;2061789;28;48330;-58
2021/12/29 04:09:34;;;;;;;;;6.33;5.67;;;;;14.48;60.34;100308.78;2089422;28;47340;-56
2021/12/29 04:10:35;;;;;;;;;5.00;5.00;;;;;14.48;60.54;100308.78;2092979;27;46159;-56
2021/12/29 04:11:35;;;;;;;;;3.67;3.67;;;;;14.48;60.70;100311.44;2081870;27;48212;-57
2021/12/29 04:12:39;;;;;;;;;5.33;4.33;;;;;14.48;60.44;100311.44;2055029;28;48075;-57
2021/12/29 04:13:39;;;;;;;;;4.50;4.50;;;;;14.48;60.65;100311.44;2077875;28;47491;-56
2021/12/29 04:14:39;;;;;;;;;7.33;3.67;;;;;14.48;60.58;100308.78;2059387;27;47022;-57
2021/12/29 04:15:40;;;;;;;;;3.33;3.33;;;;;14.49;60.77;100315.88;2097494;27;47365;-58
2021/12/29 04:16:45;;;;;;;;;3.33;3.33;;;;;14.49;60.65;100310.53;2078546;28;46080;-55
2021/12/29 04:17:46;;;;;;;;;4.00;4.00;;;;;14.49;60.58;100316.75;2053921;28;47462;-55
2021/12/29 04:19:14;;;;;;;;;4.00;4.00;;;;;14.49;60.37;100314.09;2049532;28;48622;-54
2021/12/29 04:21:38;;;;;;;;;3.00;3.00;;;;;14.48;60.76;100311.44;2063817;28;47362;-55
2021/12/29 04:22:38;;;;;;;;;5.00;4.00;;;;;14.47;60.86;100315.94;2054847;28;47667;-55
2021/12/29 04:23:39;;;;;;;;;4.67;2.00;;;;;14.47;60.75;100315.94;2088084;28;46961;-57
2021/12/29 04:24:40;;;;;;;;;5.33;5.33;;;;;14.47;60.76;100317.72;2069913;28;47946;-58
2021/12/29 04:25:45;;;;;;;;;6.50;4.50;;;;;14.47;60.87;100312.38;2061617;27;48772;-55
2021/12/29 04:26:45;;;;;;;;;4.00;2.75;;;;;14.46;60.66;100308.00;2071572;28;47441;-56
2021/12/29 04:27:47;;;;;;;;;4.00;3.33;;;;;14.46;60.96;100314.19;2063039;28;47058;-58
2021/12/29 04:28:47;;;;;;;;;3.75;3.75;;;;;14.45;61.16;100316.94;2084074;27;47599;-57
2021/12/29 04:29:48;;;;;;;;;2.67;2.67;;;;;14.43;60.84;100309.81;2079884;28;45442;-57
2021/12/29 04:30:51;;;;;;;;;4.00;3.33;;;;;14.43;60.82;100309.81;2093197;27;48462;-56
2021/12/29 04:31:51;;;;;;;;;6.00;3.00;;;;;14.43;61.17;100308.97;2074977;27;47481;-56
2021/12/29 04:32:52;;;;;;;;;5.33;5.33;;;;;14.43;61.16;100306.28;2074201;28;47375;-55
2021/12/29 04:33:53;;;;;;;;;3.00;3.00;;;;;14.41;61.01;100317.03;2079798;27;47324;-57
2021/12/29 04:34:53;;;;;;;;;4.33;3.00;;;;;14.42;61.25;100316.09;2091169;28;48283;-55
2021/12/29 04:35:54;;;;;;;;;5.33;4.33;;;;;14.41;60.98;100309.03;2084480;27;47938;-55
2021/12/29 04:36:54;;;;;;;;;6.00;5.00;;;;;14.41;61.02;100313.50;2073101;27;47301;-57
2021/12/29 04:37:55;;;;;;;;;4.00;4.00;;;;;14.42;61.35;100323.25;2055617;28;46792;-56
2021/12/29 04:38:58;;;;;;;;;4.00;3.00;;;;;14.41;61.15;100314.38;2058869;27;47651;-57
2021/12/29 04:39:58;;;;;;;;;5.00;4.00;;;;;14.41;61.15;100314.38;2104416;27;47343;-56
2021/12/29 04:40:58;;;;;;;;;4.33;3.00;;;;;14.41;61.30;100305.50;2093292;27;46269;-57
2021/12/29 04:41:59;;;;;;;;;7.33;4.33;;;;;14.42;61.08;100305.44;2069556;27;47176;-58
2021/12/29 04:43:00;;;;;;;;;5.67;5.00;;;;;14.41;61.50;100309.03;2066741;28;47414;-57
2021/12/29 04:44:01;;;;;;;;;3.50;3.25;;;;;14.41;61.58;100306.38;2066172;28;48341;-57
2021/12/29 04:45:04;;;;;;;;;4.00;3.00;;;;;14.41;61.69;100302.81;2096426;28;47475;-58
2021/12/29 04:46:04;;;;;;;;;4.00;4.00;;;;;14.42;61.40;100309.91;2084486;28;46340;-58
2021/12/29 04:47:07;;;;;;;;;3.33;3.00;;;;;14.41;61.53;100308.16;2069544;28;45640;-58
2021/12/29 04:48:12;;;;;;;;;3.25;2.75;;;;;14.41;61.87;100305.50;2066650;27;47799;-55